KATY/ATY METAR and TAF weather

Enter ICAO airport designator
Station Type Date Time Source
KATY METAR 2019/12/09 06:01 UTC NOAA

KATY 090601Z AUTO 35014KT 1 1/4SM -SN BR OVC014 M11/M12 A2972 RMK AO2 P0000 T11061122


Station Type Date Time Source
KATY Decoded METAR 2019/12/09 06:01 UTC NOAA

WATERTOWN MUNICIPAL AIRPORT, SD, United States (KATY) 44-54N 097-09W 532M
Dec 09, 2019 - 01:01 AM EST / 2019.12.09 0601 UTC
Wind: from the N (350 degrees) at 16 MPH (14 KT):0
Visibility: 1 1/4 mile(s):0
Sky conditions: overcast
Weather: light snow; mist
Precipitation last hour: A trace
Temperature: 12.9 F (-10.6 C)
Windchill: -4 F (-20 C):1
Dew Point: 10.0 F (-12.2 C)
Relative Humidity: 87%
Pressure (altimeter): 29.72 in. Hg (1006 hPa)
ob: KATY 090601Z AUTO 35014KT 1 1/4SM -SN BR OVC014 M11/M12 A2972 RMK AO2 P0000 T11061122
cycle: 6

Station Type Date Time Source
KATY TAF 2019/12/09 06:27 UTC NOAA

TAF KATY 090524Z 0906/1006 36015KT 1 1/2SM -SN BR OVC006
FM090900 34018G26KT 1SM -SN BLSN OVC003
FM091500 33015KT P6SM SCT050
FM100200 28006KT P6SM OVC015

Example: see airport list